createdAt,value
2018-05-24T00:00:57.690Z,0.00
2018-05-24T00:01:57.597Z,0.00
2018-05-24T00:02:57.505Z,0.00
2018-05-24T00:03:57.402Z,0.00
2018-05-24T00:04:57.311Z,0.00
2018-05-24T00:05:57.221Z,0.00
2018-05-24T00:06:57.121Z,0.00
2018-05-24T00:07:57.128Z,0.00
2018-05-24T00:08:56.922Z,0.00
2018-05-24T00:09:56.831Z,0.00
2018-05-24T00:10:56.742Z,0.00
2018-05-24T00:11:56.638Z,0.00
2018-05-24T00:12:56.547Z,0.00
2018-05-24T00:13:56.444Z,0.00
2018-05-24T00:14:56.353Z,0.00
2018-05-24T00:15:56.261Z,0.00
2018-05-24T00:16:56.158Z,0.00
2018-05-24T00:17:56.069Z,0.00
2018-05-24T00:18:55.976Z,0.00
2018-05-24T00:19:55.874Z,0.00
2018-05-24T00:20:55.782Z,0.00
2018-05-24T00:21:55.680Z,0.00
2018-05-24T00:22:55.601Z,0.00
2018-05-24T00:23:55.498Z,0.00
2018-05-24T00:24:55.395Z,0.00
2018-05-24T00:25:55.303Z,0.00
2018-05-24T00:26:55.200Z,0.00
2018-05-24T00:27:55.109Z,0.00
2018-05-24T00:28:55.018Z,0.00
2018-05-24T00:29:54.915Z,0.00
2018-05-24T00:30:54.826Z,0.00
2018-05-24T00:31:54.720Z,0.00
2018-05-24T00:32:54.629Z,0.00
2018-05-24T00:33:54.539Z,0.00
2018-05-24T00:34:54.435Z,0.00
2018-05-24T00:35:54.344Z,0.00
2018-05-24T00:36:54.243Z,0.00
2018-05-24T00:37:54.151Z,0.00
2018-05-24T00:38:54.071Z,0.00
2018-05-24T00:39:53.956Z,0.00
2018-05-24T00:40:53.866Z,0.00
2018-05-24T00:41:53.763Z,0.00
2018-05-24T00:42:53.670Z,0.00
2018-05-24T00:43:53.582Z,0.00
2018-05-24T00:44:53.477Z,0.00
2018-05-24T00:45:53.387Z,0.00
2018-05-24T00:46:53.283Z,0.00
2018-05-24T00:47:53.194Z,0.00
2018-05-24T00:48:53.102Z,0.00
2018-05-24T00:49:53.012Z,0.00
2018-05-24T00:50:52.908Z,0.00
2018-05-24T00:51:52.804Z,0.00
2018-05-24T00:52:52.713Z,0.00
2018-05-24T00:53:52.622Z,0.00
2018-05-24T00:54:52.519Z,0.00
2018-05-24T00:55:52.430Z,0.00
2018-05-24T00:56:52.324Z,0.00
2018-05-24T00:57:52.235Z,0.00
2018-05-24T00:58:52.133Z,0.00
2018-05-24T00:59:52.039Z,0.00
2018-05-24T01:00:51.950Z,0.00
2018-05-24T01:01:51.847Z,0.00
2018-05-24T01:02:51.757Z,0.00
2018-05-24T01:03:51.665Z,0.00
2018-05-24T01:04:51.561Z,0.00
2018-05-24T01:05:51.720Z,0.00
2018-05-24T01:06:51.367Z,0.00
2018-05-24T01:07:51.278Z,0.00
2018-05-24T01:08:51.173Z,0.00
2018-05-24T01:09:51.081Z,0.00
2018-05-24T01:10:50.979Z,0.00
2018-05-24T01:11:50.891Z,0.00
2018-05-24T01:12:50.799Z,0.00
2018-05-24T01:13:50.693Z,0.00
2018-05-24T01:14:50.602Z,0.00
2018-05-24T01:15:50.568Z,0.00
2018-05-24T01:16:50.415Z,0.00
2018-05-24T01:17:50.319Z,0.00
2018-05-24T01:18:50.215Z,0.00
2018-05-24T01:19:50.127Z,0.00
2018-05-24T01:20:50.020Z,0.00
2018-05-24T01:21:49.930Z,0.00
2018-05-24T01:22:49.827Z,0.00
2018-05-24T01:23:49.737Z,0.00
2018-05-24T01:24:49.647Z,0.00
2018-05-24T01:25:49.792Z,0.00
2018-05-24T01:26:49.450Z,0.00
2018-05-24T01:27:49.347Z,0.00
2018-05-24T01:28:49.257Z,0.00
2018-05-24T01:29:49.156Z,0.00
2018-05-24T01:30:49.062Z,0.00
2018-05-24T01:31:48.973Z,0.00
2018-05-24T01:32:48.873Z,0.00
2018-05-24T01:33:48.789Z,0.00
2018-05-24T01:34:48.674Z,0.00
2018-05-24T01:35:48.588Z,0.00
2018-05-24T01:36:48.492Z,0.00
2018-05-24T01:37:48.392Z,0.00
2018-05-24T01:38:48.299Z,0.00
2018-05-24T01:39:48.196Z,0.00
2018-05-24T01:40:48.104Z,0.00
2018-05-24T01:41:48.008Z,0.00
2018-05-24T01:42:47.910Z,0.00
2018-05-24T01:43:47.809Z,0.00
2018-05-24T01:44:47.716Z,0.00
2018-05-24T01:45:47.626Z,0.00
2018-05-24T01:46:47.522Z,0.00
2018-05-24T01:47:47.431Z,0.00
2018-05-24T01:48:47.329Z,0.00
2018-05-24T01:49:47.243Z,0.00
2018-05-24T01:50:47.135Z,0.00
2018-05-24T01:51:47.042Z,0.00
2018-05-24T01:52:46.956Z,0.00
2018-05-24T01:53:46.849Z,0.00
2018-05-24T01:54:46.759Z,0.00
2018-05-24T01:55:46.654Z,0.00
2018-05-24T01:56:46.564Z,0.00
2018-05-24T01:57:46.460Z,0.00
2018-05-24T01:58:46.383Z,0.00
2018-05-24T01:59:46.280Z,0.00
2018-05-24T02:00:46.180Z,0.00
2018-05-24T02:01:46.088Z,0.00
2018-05-24T02:02:45.982Z,0.00
2018-05-24T02:03:45.891Z,0.00
2018-05-24T02:04:45.870Z,0.00
2018-05-24T02:05:45.989Z,0.00
2018-05-24T02:06:45.595Z,0.00
2018-05-24T02:07:45.517Z,0.00
2018-05-24T02:08:45.401Z,0.00
2018-05-24T02:09:45.311Z,0.00
2018-05-24T02:10:45.206Z,0.00
2018-05-24T02:11:45.115Z,0.00
2018-05-24T02:12:45.023Z,0.00
2018-05-24T02:13:44.920Z,0.00
2018-05-24T02:14:44.830Z,0.00
2018-05-24T02:15:44.727Z,4.00
2018-05-24T02:16:44.635Z,4.00
2018-05-24T02:17:44.532Z,4.00
2018-05-24T02:18:44.441Z,0.00
2018-05-24T02:19:44.339Z,0.00
2018-05-24T02:20:44.247Z,4.00
2018-05-24T02:21:44.145Z,4.00
2018-05-24T02:22:44.054Z,4.00
2018-05-24T02:23:44.017Z,4.00
2018-05-24T02:24:43.861Z,8.00
2018-05-24T02:25:43.769Z,4.00
2018-05-24T02:26:43.666Z,8.00
2018-05-24T02:27:43.574Z,8.00
2018-05-24T02:28:43.473Z,8.00
2018-05-24T02:29:43.380Z,12.00
2018-05-24T02:30:43.278Z,12.00
2018-05-24T02:31:43.190Z,12.00
2018-05-24T02:32:43.084Z,12.00
2018-05-24T02:33:42.992Z,16.00
2018-05-24T02:34:42.902Z,16.00
2018-05-24T02:35:42.808Z,20.00
2018-05-24T02:36:42.710Z,24.00
2018-05-24T02:37:42.605Z,24.00
2018-05-24T02:38:42.513Z,28.00
2018-05-24T02:39:42.410Z,32.00
2018-05-24T02:40:42.319Z,36.00
2018-05-24T02:41:42.216Z,40.00
2018-05-24T02:42:42.124Z,44.00
2018-05-24T02:43:42.028Z,52.00
2018-05-24T02:44:41.930Z,56.00
2018-05-24T02:45:41.828Z,64.00
2018-05-24T02:46:41.736Z,68.00
2018-05-24T02:47:41.635Z,80.00
2018-05-24T02:48:41.542Z,88.00
2018-05-24T02:49:41.440Z,96.00
2018-05-24T02:50:41.361Z,108.00
2018-05-24T02:51:41.260Z,112.00
2018-05-24T02:52:41.156Z,124.00
2018-05-24T02:53:41.063Z,136.00
2018-05-24T02:54:40.960Z,148.00
2018-05-24T02:55:40.870Z,160.00
2018-05-24T02:56:40.767Z,176.00
2018-05-24T02:57:40.675Z,188.00
2018-05-24T02:58:40.571Z,204.00
2018-05-24T02:59:40.481Z,224.00
2018-05-24T03:00:40.378Z,240.00
2018-05-24T03:01:40.412Z,264.00
2018-05-24T03:02:40.183Z,284.00
2018-05-24T03:03:40.092Z,304.00
2018-05-24T03:04:39.992Z,328.00
2018-05-24T03:05:40.148Z,356.00
2018-05-24T03:06:39.795Z,384.00
2018-05-24T03:07:39.704Z,416.00
2018-05-24T03:08:39.616Z,444.00
2018-05-24T03:09:39.511Z,480.00
2018-05-24T03:10:39.407Z,516.00
2018-05-24T03:11:39.316Z,556.00
2018-05-24T03:12:39.225Z,600.00
2018-05-24T03:13:39.121Z,644.00
2018-05-24T03:14:39.027Z,684.00
2018-05-24T03:15:38.929Z,724.00
2018-05-24T03:16:38.849Z,768.00
2018-05-24T03:17:38.733Z,816.00
2018-05-24T03:18:38.644Z,860.00
2018-05-24T03:19:38.540Z,908.00
2018-05-24T03:20:38.448Z,960.00
2018-05-24T03:21:38.344Z,1012.00
2018-05-24T03:22:38.258Z,1064.00
2018-05-24T03:23:38.155Z,1116.00
2018-05-24T03:24:38.060Z,1160.00
2018-05-24T03:25:38.207Z,1208.00
2018-05-24T03:26:37.866Z,1260.00
2018-05-24T03:27:37.763Z,1320.00
2018-05-24T03:28:37.671Z,1372.00
2018-05-24T03:29:37.568Z,1436.00
2018-05-24T03:30:37.781Z,1484.00
2018-05-24T03:31:37.375Z,1552.00
2018-05-24T03:32:37.284Z,1608.00
2018-05-24T03:33:37.181Z,1664.00
2018-05-24T03:34:37.091Z,1740.00
2018-05-24T03:35:36.987Z,1820.00
2018-05-24T03:36:36.895Z,1896.00
2018-05-24T03:37:36.796Z,1960.00
2018-05-24T03:38:36.702Z,2024.00
2018-05-24T03:39:36.611Z,2104.00
2018-05-24T03:40:36.507Z,2184.00
2018-05-24T03:41:36.417Z,2280.00
2018-05-24T03:42:36.313Z,2336.00
2018-05-24T03:43:36.221Z,2416.00
2018-05-24T03:44:36.119Z,2480.00
2018-05-24T03:45:36.028Z,2596.00
2018-05-24T03:46:35.927Z,2664.00
2018-05-24T03:47:35.834Z,2704.00
2018-05-24T03:48:35.731Z,2780.00
2018-05-24T03:49:35.640Z,2892.00
2018-05-24T03:50:35.837Z,2900.00
2018-05-24T03:51:35.451Z,2852.00
2018-05-24T03:52:35.355Z,2904.00
2018-05-24T03:53:35.252Z,2904.00
2018-05-24T03:54:35.160Z,2872.00
2018-05-24T03:55:35.057Z,2912.00
2018-05-24T03:56:34.967Z,3024.00
2018-05-24T03:57:34.870Z,2892.00
2018-05-24T03:58:34.772Z,2916.00
2018-05-24T03:59:34.683Z,2912.00
2018-05-24T04:00:34.579Z,2928.00
2018-05-24T04:01:34.487Z,2956.00
2018-05-24T04:02:34.384Z,2976.00
2018-05-24T04:03:34.293Z,3028.00
2018-05-24T04:04:34.190Z,3080.00
2018-05-24T04:05:34.150Z,3168.00
2018-05-24T04:06:34.009Z,3164.00
2018-05-24T04:07:33.911Z,3188.00
2018-05-24T04:08:33.848Z,3216.00
2018-05-24T04:09:33.710Z,3296.00
2018-05-24T04:10:33.621Z,3400.00
2018-05-24T04:11:33.529Z,3360.00
2018-05-24T04:12:33.425Z,3352.00
2018-05-24T04:13:33.335Z,3476.00
2018-05-24T04:14:33.233Z,3468.00
2018-05-24T04:15:33.141Z,3464.00
2018-05-24T04:16:33.039Z,3440.00
2018-05-24T04:17:32.947Z,3440.00
2018-05-24T04:18:32.857Z,3488.00
2018-05-24T04:19:32.752Z,3528.00
2018-05-24T04:20:32.663Z,3556.00
2018-05-24T04:21:32.559Z,3592.00
2018-05-24T04:22:32.470Z,3652.00
2018-05-24T04:23:32.377Z,3708.00
2018-05-24T04:24:32.286Z,3880.00
2018-05-24T04:25:32.182Z,3844.00
2018-05-24T04:26:32.093Z,4016.00
2018-05-24T04:27:31.989Z,4300.00
2018-05-24T04:28:31.898Z,4228.00
2018-05-24T04:29:31.795Z,4104.00
2018-05-24T04:30:31.705Z,3956.00
2018-05-24T04:31:31.613Z,4216.00
2018-05-24T04:32:31.509Z,4200.00
2018-05-24T04:33:31.420Z,4428.00
2018-05-24T04:34:31.328Z,4508.00
2018-05-24T04:35:31.225Z,4680.00
2018-05-24T04:36:31.134Z,4784.00
2018-05-24T04:37:31.043Z,4912.00
2018-05-24T04:38:30.939Z,4912.00
2018-05-24T04:39:30.850Z,5144.00
2018-05-24T04:40:30.758Z,5220.00
2018-05-24T04:41:30.654Z,5184.00
2018-05-24T04:42:30.564Z,5308.00
2018-05-24T04:43:30.476Z,5484.00
2018-05-24T04:44:30.371Z,5488.00
2018-05-24T04:45:30.356Z,5604.00
2018-05-24T04:46:30.188Z,5588.00
2018-05-24T04:47:30.084Z,5768.00
2018-05-24T04:48:29.994Z,6040.00
2018-05-24T04:49:29.903Z,6016.00
2018-05-24T04:50:29.813Z,6168.00
2018-05-24T04:51:29.710Z,6028.00
2018-05-24T04:52:29.618Z,6084.00
2018-05-24T04:53:29.517Z,6184.00
2018-05-24T04:54:29.424Z,6096.00
2018-05-24T04:55:29.333Z,6552.00
2018-05-24T04:56:29.243Z,6564.00
2018-05-24T04:57:29.152Z,6576.00
2018-05-24T04:58:29.048Z,6640.00
2018-05-24T04:59:28.959Z,6648.00
2018-05-24T05:00:29.116Z,6780.00
2018-05-24T05:01:28.776Z,6928.00
2018-05-24T05:02:28.674Z,7004.00
2018-05-24T05:03:28.582Z,7208.00
2018-05-24T05:04:28.493Z,7312.00
2018-05-24T05:05:28.400Z,7516.00
2018-05-24T05:06:28.311Z,7568.00
2018-05-24T05:07:28.207Z,7520.00
2018-05-24T05:08:28.115Z,7376.00
2018-05-24T05:09:28.024Z,7784.00
2018-05-24T05:10:27.934Z,7724.00
2018-05-24T05:11:27.831Z,7460.00
2018-05-24T05:12:27.743Z,7168.00
2018-05-24T05:13:27.653Z,6872.00
2018-05-24T05:14:27.583Z,6800.00
2018-05-24T05:15:27.467Z,6872.00
2018-05-24T05:16:27.363Z,7120.00
2018-05-24T05:17:27.274Z,7436.00
2018-05-24T05:18:27.182Z,8048.00
2018-05-24T05:19:27.176Z,8676.00
2018-05-24T05:20:26.990Z,8860.00
2018-05-24T05:21:26.897Z,9508.00
2018-05-24T05:22:26.806Z,9280.00
2018-05-24T05:23:26.740Z,9788.00
2018-05-24T05:24:26.631Z,9924.00
2018-05-24T05:25:26.772Z,10012.00
2018-05-24T05:26:26.431Z,10524.00
2018-05-24T05:27:26.340Z,10496.00
2018-05-24T05:28:26.250Z,9632.00
2018-05-24T05:29:26.159Z,9096.00
2018-05-24T05:30:26.056Z,8424.00
2018-05-24T05:31:25.964Z,8380.00
2018-05-24T05:32:25.873Z,8148.00
2018-05-24T05:33:25.796Z,8300.00
2018-05-24T05:34:25.692Z,8556.00
2018-05-24T05:35:25.601Z,8592.00
2018-05-24T05:36:25.507Z,9784.00
2018-05-24T05:37:25.408Z,9076.00
2018-05-24T05:38:25.316Z,8544.00
2018-05-24T05:39:25.227Z,8644.00
2018-05-24T05:40:25.136Z,9220.00
2018-05-24T05:41:25.045Z,9236.00
2018-05-24T05:42:24.952Z,9076.00
2018-05-24T05:43:24.850Z,8744.00
2018-05-24T05:44:24.759Z,9132.00
2018-05-24T05:45:24.967Z,8756.00
2018-05-24T05:46:24.578Z,8204.00
2018-05-24T05:47:24.487Z,8204.00
2018-05-24T05:48:24.385Z,8500.00
2018-05-24T05:49:24.293Z,8112.00
2018-05-24T05:50:24.203Z,7900.00
2018-05-24T05:51:24.112Z,8220.00
2018-05-24T05:52:24.020Z,8632.00
2018-05-24T05:53:23.930Z,8872.00
2018-05-24T05:54:23.826Z,8876.00
2018-05-24T05:55:23.734Z,9244.00
2018-05-24T05:56:23.644Z,9296.00
2018-05-24T05:57:23.553Z,9812.00
2018-05-24T05:58:23.463Z,9884.00
2018-05-24T05:59:23.371Z,9752.00
2018-05-24T06:00:23.269Z,10092.00
2018-05-24T06:01:23.183Z,10652.00
2018-05-24T06:02:23.087Z,11216.00
2018-05-24T06:03:23.001Z,12340.00
2018-05-24T06:04:22.904Z,13592.00
2018-05-24T06:05:22.815Z,13732.00
2018-05-24T06:06:22.712Z,13744.00
2018-05-24T06:07:22.620Z,12596.00
2018-05-24T06:08:22.530Z,11252.00
2018-05-24T06:09:22.438Z,10524.00
2018-05-24T06:10:22.348Z,11772.00
2018-05-24T06:11:22.257Z,12184.00
2018-05-24T06:12:22.166Z,11604.00
2018-05-24T06:13:22.075Z,9868.00
2018-05-24T06:14:21.972Z,9588.00
2018-05-24T06:15:21.907Z,9492.00
2018-05-24T06:16:21.791Z,9276.00
2018-05-24T06:17:21.699Z,9472.00
2018-05-24T06:18:21.611Z,9776.00
2018-05-24T06:19:21.518Z,10216.00
2018-05-24T06:20:21.450Z,10304.00
2018-05-24T06:21:21.337Z,11216.00
2018-05-24T06:22:21.245Z,11552.00
2018-05-24T06:23:21.159Z,10932.00
2018-05-24T06:24:21.064Z,11776.00
2018-05-24T06:25:20.960Z,11328.00
2018-05-24T06:26:20.870Z,11280.00
2018-05-24T06:27:20.779Z,10596.00
2018-05-24T06:28:20.735Z,11444.00
2018-05-24T06:29:20.597Z,11208.00
2018-05-24T06:30:20.508Z,11176.00
2018-05-24T06:31:20.417Z,10032.00
2018-05-24T06:32:20.326Z,9656.00
2018-05-24T06:33:20.247Z,8604.00
2018-05-24T06:34:20.144Z,8088.00
2018-05-24T06:35:20.040Z,7992.00
2018-05-24T06:36:19.949Z,7924.00
2018-05-24T06:37:19.905Z,8136.00
2018-05-24T06:38:19.780Z,7884.00
2018-05-24T06:39:19.678Z,9144.00
2018-05-24T06:40:19.836Z,10276.00
2018-05-24T06:41:19.495Z,10896.00
2018-05-24T06:42:19.404Z,12624.00
2018-05-24T06:43:19.315Z,13524.00
2018-05-24T06:44:19.210Z,14372.00
2018-05-24T06:45:19.119Z,11584.00
2018-05-24T06:46:19.029Z,11676.00
2018-05-24T06:47:18.938Z,13244.00
2018-05-24T06:48:18.847Z,13624.00
2018-05-24T06:49:18.758Z,14392.00
2018-05-24T06:50:18.665Z,16576.00
2018-05-24T06:51:18.574Z,17760.00
2018-05-24T06:52:18.483Z,18208.00
2018-05-24T06:53:18.394Z,18624.00
2018-05-24T06:54:18.311Z,18880.00
2018-05-24T06:55:18.214Z,18976.00
2018-05-24T06:56:18.121Z,19360.00
2018-05-24T06:57:18.029Z,19552.00
2018-05-24T06:58:17.939Z,19552.00
2018-05-24T06:59:17.847Z,19872.00
2018-05-24T07:00:18.009Z,20128.00
2018-05-24T07:01:17.662Z,21024.00
2018-05-24T07:02:17.579Z,21312.00
2018-05-24T07:03:17.485Z,21536.00
2018-05-24T07:04:17.406Z,21888.00
2018-05-24T07:05:17.323Z,22176.00
2018-05-24T07:06:17.224Z,22240.00
2018-05-24T07:07:17.134Z,22400.00
2018-05-24T07:08:17.043Z,22624.00
2018-05-24T07:09:16.952Z,22784.00
2018-05-24T07:10:16.864Z,23200.00
2018-05-24T07:11:16.782Z,23744.00
2018-05-24T07:12:16.692Z,24160.00
2018-05-24T07:13:16.602Z,24576.00
2018-05-24T07:14:16.511Z,23840.00
2018-05-24T07:15:16.434Z,20064.00
2018-05-24T07:16:16.344Z,18592.00
2018-05-24T07:17:16.254Z,23360.00
2018-05-24T07:18:16.160Z,25312.00
2018-05-24T07:19:16.082Z,27328.00
2018-05-24T07:20:15.991Z,27840.00
2018-05-24T07:21:15.900Z,27616.00
2018-05-24T07:22:15.816Z,26656.00
2018-05-24T07:23:15.731Z,25664.00
2018-05-24T07:24:15.639Z,22144.00
2018-05-24T07:25:15.553Z,20256.00
2018-05-24T07:26:15.471Z,18272.00
2018-05-24T07:27:15.380Z,16200.00
2018-05-24T07:28:15.290Z,16492.00
2018-05-24T07:29:15.198Z,18176.00
2018-05-24T07:30:15.121Z,21120.00
2018-05-24T07:31:15.037Z,23360.00
2018-05-24T07:32:14.939Z,25056.00
2018-05-24T07:33:14.848Z,25088.00
2018-05-24T07:34:14.773Z,32224.00
2018-05-24T07:35:14.682Z,35200.00
2018-05-24T07:36:14.588Z,29248.00
2018-05-24T07:37:14.497Z,31488.00
2018-05-24T07:38:14.419Z,39232.00
2018-05-24T07:39:14.328Z,47040.00
2018-05-24T07:40:14.241Z,39712.00
2018-05-24T07:41:14.148Z,41120.00
2018-05-24T07:42:14.056Z,41056.00
2018-05-24T07:43:13.966Z,45344.00
2018-05-24T07:44:13.887Z,56992.00
2018-05-24T07:45:13.825Z,54752.00
2018-05-24T07:46:13.708Z,50752.00
2018-05-24T07:47:13.616Z,62720.00
2018-05-24T07:48:13.523Z,49024.00
2018-05-24T07:49:13.432Z,53888.00
2018-05-24T07:50:13.353Z,61664.00
2018-05-24T07:51:13.264Z,64704.00
2018-05-24T07:52:13.172Z,96032.00
2018-05-24T07:53:13.083Z,105344.00
2018-05-24T07:54:12.990Z,108960.00
2018-05-24T07:55:12.901Z,113888.00
2018-05-24T07:56:12.814Z,136256.00
2018-05-24T07:57:12.730Z,111808.00
2018-05-24T07:58:12.640Z,110496.00
2018-05-24T07:59:12.549Z,72992.00
2018-05-24T08:00:12.459Z,47936.00
2018-05-24T08:01:12.365Z,23328.00
2018-05-24T08:02:12.277Z,13204.00
2018-05-24T08:03:12.199Z,11936.00
2018-05-24T08:04:12.107Z,10956.00
2018-05-24T08:05:12.018Z,10524.00
2018-05-24T08:06:11.926Z,10048.00
2018-05-24T08:07:11.836Z,9928.00
2018-05-24T08:08:11.745Z,9772.00
2018-05-24T08:09:11.655Z,9476.00
2018-05-24T08:10:11.562Z,9108.00
2018-05-24T08:11:11.472Z,8924.00
2018-05-24T08:12:11.382Z,8896.00
2018-05-24T08:13:11.303Z,9004.00
2018-05-24T08:14:11.212Z,9048.00
2018-05-24T08:15:11.121Z,8972.00
2018-05-24T08:16:11.032Z,8920.00
2018-05-24T08:17:10.939Z,8892.00
2018-05-24T08:18:10.851Z,8876.00
2018-05-24T08:19:10.759Z,8856.00
2018-05-24T08:20:10.668Z,8888.00
2018-05-24T08:21:10.576Z,8896.00
2018-05-24T08:22:10.486Z,8960.00
2018-05-24T08:23:10.395Z,9056.00
2018-05-24T08:24:10.305Z,9076.00
2018-05-24T08:25:10.213Z,9048.00
2018-05-24T08:26:10.122Z,9024.00
2018-05-24T08:27:10.031Z,8992.00
2018-05-24T08:28:09.941Z,9020.00
2018-05-24T08:29:09.862Z,9108.00
2018-05-24T08:30:09.759Z,9128.00
2018-05-24T08:31:09.668Z,9164.00
2018-05-24T08:32:09.578Z,9176.00
2018-05-24T08:33:09.489Z,9232.00
2018-05-24T08:34:09.395Z,9352.00
2018-05-24T08:35:09.324Z,9608.00
2018-05-24T08:36:09.202Z,10244.00
2018-05-24T08:37:09.126Z,14284.00
2018-05-24T08:38:09.086Z,26176.00
2018-05-24T08:39:08.930Z,40352.00
2018-05-24T08:40:08.840Z,48064.00
2018-05-24T08:41:08.753Z,49248.00
2018-05-24T08:42:08.656Z,53312.00
2018-05-24T08:43:08.568Z,55968.00
2018-05-24T08:44:08.475Z,56128.00
2018-05-24T08:45:08.384Z,55616.00
2018-05-24T08:46:08.293Z,52736.00
2018-05-24T08:47:08.240Z,51072.00
2018-05-24T08:48:08.112Z,51200.00
2018-05-24T08:49:08.022Z,51168.00
2018-05-24T08:50:07.943Z,51360.00
2018-05-24T08:51:07.852Z,50976.00
2018-05-24T08:52:07.761Z,50816.00
2018-05-24T08:53:07.670Z,53184.00
2018-05-24T08:54:07.580Z,54496.00
2018-05-24T08:55:07.501Z,53568.00
2018-05-24T08:56:07.410Z,53248.00
2018-05-24T08:57:07.320Z,54080.00
2018-05-24T08:58:07.242Z,54560.00
2018-05-24T08:59:07.150Z,56768.00
2018-05-24T09:00:07.060Z,60032.00
2018-05-24T09:01:06.982Z,59488.00
2018-05-24T09:02:06.890Z,56704.00
2018-05-24T09:03:06.811Z,53568.00
2018-05-24T09:04:06.723Z,55104.00
2018-05-24T09:05:06.631Z,58080.00
2018-05-24T09:06:06.552Z,61536.00
2018-05-24T09:07:06.462Z,63648.00
2018-05-24T09:08:06.384Z,65664.00
2018-05-24T09:09:06.388Z,65472.00
2018-05-24T09:10:06.214Z,64800.00
2018-05-24T09:11:06.123Z,62080.00
2018-05-24T09:12:06.050Z,58912.00
2018-05-24T09:13:05.956Z,55584.00
2018-05-24T09:14:05.877Z,53056.00
2018-05-24T09:15:05.785Z,51456.00
2018-05-24T09:16:05.707Z,49824.00
2018-05-24T09:17:05.616Z,45312.00
2018-05-24T09:18:05.551Z,31552.00
2018-05-24T09:19:05.463Z,38016.00
2018-05-24T09:20:05.415Z,41856.00
2018-05-24T09:21:05.290Z,43488.00
2018-05-24T09:22:05.208Z,41888.00
2018-05-24T09:23:05.121Z,45312.00
2018-05-24T09:24:05.031Z,45056.00
2018-05-24T09:25:04.953Z,44256.00
2018-05-24T09:26:04.862Z,41088.00
2018-05-24T09:27:04.782Z,38624.00
2018-05-24T09:28:04.704Z,32480.00
2018-05-24T09:29:04.618Z,34048.00
2018-05-24T09:30:04.536Z,36032.00
2018-05-24T09:31:04.444Z,33440.00
2018-05-24T09:32:04.366Z,34208.00
2018-05-24T09:33:04.276Z,36352.00
2018-05-24T09:34:04.197Z,35776.00
2018-05-24T09:35:04.105Z,38720.00
2018-05-24T09:36:04.040Z,36768.00
2018-05-24T09:37:03.937Z,35488.00
2018-05-24T09:38:03.859Z,35616.00
2018-05-24T09:39:03.769Z,35072.00
2018-05-24T09:40:03.691Z,36288.00
2018-05-24T09:41:03.599Z,30528.00
2018-05-24T09:42:03.536Z,31040.00
2018-05-24T09:43:03.429Z,36800.00
2018-05-24T09:44:03.339Z,37472.00
2018-05-24T09:45:03.260Z,37600.00
2018-05-24T09:46:03.169Z,37152.00
2018-05-24T09:47:03.091Z,38816.00
2018-05-24T09:48:03.001Z,14628.00
2018-05-24T09:49:02.910Z,48064.00
2018-05-24T09:50:02.831Z,48768.00
2018-05-24T09:51:02.741Z,45216.00
2018-05-24T09:52:02.663Z,47840.00
2018-05-24T09:53:02.573Z,48992.00
2018-05-24T09:54:02.492Z,48992.00
2018-05-24T09:55:02.405Z,50432.00
2018-05-24T09:56:02.324Z,47744.00
2018-05-24T09:57:02.233Z,48032.00
2018-05-24T09:58:02.155Z,48896.00
2018-05-24T09:59:02.064Z,47648.00
2018-05-24T10:00:01.986Z,47552.00
2018-05-24T10:01:01.895Z,49440.00
2018-05-24T10:02:01.820Z,51552.00
2018-05-24T10:03:01.728Z,26752.00
2018-05-24T10:04:01.648Z,52384.00
2018-05-24T10:05:01.573Z,54080.00
2018-05-24T10:06:01.478Z,55136.00
2018-05-24T10:07:01.399Z,53024.00
2018-05-24T10:08:01.309Z,51744.00
2018-05-24T10:09:01.231Z,50368.00
2018-05-24T10:10:01.153Z,51936.00
2018-05-24T10:11:01.062Z,63872.00
2018-05-24T10:12:00.996Z,102560.00
2018-05-24T10:13:00.893Z,161728.00
2018-05-24T10:14:00.813Z,186784.00
2018-05-24T10:15:00.736Z,42912.00
2018-05-24T10:16:00.645Z,136640.00
2018-05-24T10:17:00.566Z,25216.00
2018-05-24T10:18:00.489Z,121824.00
2018-05-24T10:19:00.398Z,158048.00
2018-05-24T10:20:00.319Z,151936.00
2018-05-24T10:21:00.241Z,144032.00
2018-05-24T10:22:00.150Z,143872.00
2018-05-24T10:23:00.071Z,16388.00
2018-05-24T10:23:59.993Z,154048.00
2018-05-24T10:24:59.902Z,150688.00
2018-05-24T10:25:59.828Z,146080.00
2018-05-24T10:26:59.747Z,151168.00
2018-05-24T10:27:59.654Z,154240.00
2018-05-24T10:28:59.576Z,149376.00
2018-05-24T10:29:59.497Z,146304.00
2018-05-24T10:30:59.419Z,146816.00
2018-05-24T10:31:59.357Z,145920.00
2018-05-24T10:32:59.251Z,63936.00
2018-05-24T10:33:59.172Z,131360.00
2018-05-24T10:34:59.094Z,153952.00
2018-05-24T10:35:59.004Z,138880.00
2018-05-24T10:36:58.925Z,52608.00
2018-05-24T10:37:58.847Z,18656.00
2018-05-24T10:38:58.768Z,120160.00
2018-05-24T10:39:58.941Z,120864.00
2018-05-24T10:40:58.611Z,124384.00
2018-05-24T10:41:58.521Z,123680.00
2018-05-24T10:42:58.443Z,116960.00
2018-05-24T10:43:58.365Z,116576.00
2018-05-24T10:44:58.286Z,16248.00
2018-05-24T10:45:58.210Z,20192.00
2018-05-24T10:46:58.134Z,67168.00
2018-05-24T10:47:58.051Z,130592.00
2018-05-24T10:48:57.960Z,119072.00
2018-05-24T10:49:57.882Z,122304.00
2018-05-24T10:50:57.817Z,121600.00
2018-05-24T10:51:57.716Z,121152.00
2018-05-24T10:52:57.637Z,124352.00
2018-05-24T10:53:57.556Z,21792.00
2018-05-24T10:54:57.465Z,21056.00
2018-05-24T10:55:57.407Z,29760.00
2018-05-24T10:56:57.308Z,25280.00
2018-05-24T10:57:57.219Z,19008.00
2018-05-24T10:58:57.140Z,21344.00
2018-05-24T10:59:57.063Z,21504.00
2018-05-24T11:00:56.987Z,41120.00
2018-05-24T11:01:56.893Z,108960.00
2018-05-24T11:02:56.879Z,106848.00
2018-05-24T11:03:56.724Z,113440.00
2018-05-24T11:04:56.645Z,117216.00
2018-05-24T11:05:56.554Z,113920.00
2018-05-24T11:06:56.476Z,112224.00
2018-05-24T11:07:56.385Z,111520.00
2018-05-24T11:08:56.310Z,113792.00
2018-05-24T11:09:56.231Z,117152.00
2018-05-24T11:10:56.137Z,115456.00
2018-05-24T11:11:56.060Z,113952.00
2018-05-24T11:12:55.970Z,113728.00
2018-05-24T11:13:55.890Z,116416.00
2018-05-24T11:14:55.812Z,121248.00
2018-05-24T11:15:55.721Z,106592.00
2018-05-24T11:16:55.646Z,18080.00
2018-05-24T11:17:55.567Z,110656.00
2018-05-24T11:18:55.475Z,119200.00
2018-05-24T11:19:55.395Z,53728.00
2018-05-24T11:20:55.317Z,122208.00
2018-05-24T11:21:55.226Z,121856.00
2018-05-24T11:22:55.153Z,122368.00
2018-05-24T11:23:55.069Z,115040.00
2018-05-24T11:24:54.979Z,66240.00
2018-05-24T11:25:54.901Z,28160.00
2018-05-24T11:26:54.822Z,18080.00
2018-05-24T11:27:54.731Z,11940.00
2018-05-24T11:28:54.652Z,12028.00
2018-05-24T11:29:54.574Z,18144.00
2018-05-24T11:30:54.485Z,15628.00
2018-05-24T11:31:54.415Z,12748.00
2018-05-24T11:32:54.328Z,14140.00
2018-05-24T11:33:54.236Z,14020.00
2018-05-24T11:34:54.145Z,13992.00
2018-05-24T11:35:54.067Z,16344.00
2018-05-24T11:36:53.980Z,12512.00
2018-05-24T11:37:53.886Z,10564.00
2018-05-24T11:38:53.807Z,10792.00
2018-05-24T11:39:53.967Z,10784.00
2018-05-24T11:40:53.626Z,9400.00
2018-05-24T11:41:53.548Z,10632.00
2018-05-24T11:42:53.456Z,15000.00
2018-05-24T11:43:53.368Z,9356.00
2018-05-24T11:44:53.287Z,8100.00
2018-05-24T11:45:53.196Z,8376.00
2018-05-24T11:46:53.109Z,9224.00
2018-05-24T11:47:53.015Z,9328.00
2018-05-24T11:48:52.935Z,10360.00
2018-05-24T11:49:52.847Z,10200.00
2018-05-24T11:50:52.757Z,8752.00
2018-05-24T11:51:52.665Z,9468.00
2018-05-24T11:52:52.573Z,9692.00
2018-05-24T11:53:52.496Z,9272.00
2018-05-24T11:54:52.406Z,9692.00
2018-05-24T11:55:52.314Z,25728.00
2018-05-24T11:56:52.222Z,78848.00
2018-05-24T11:57:52.131Z,103072.00
2018-05-24T11:58:52.046Z,104640.00
2018-05-24T11:59:52.212Z,103680.00
2018-05-24T12:00:51.870Z,98880.00
2018-05-24T12:01:51.855Z,97408.00
2018-05-24T12:02:51.689Z,100544.00
2018-05-24T12:03:51.600Z,99712.00
2018-05-24T12:04:51.521Z,97184.00
2018-05-24T12:05:51.429Z,100096.00
2018-05-24T12:06:51.339Z,97952.00
2018-05-24T12:07:51.261Z,91872.00
2018-05-24T12:08:51.172Z,91744.00